Time;durP1;ratioP1;P1;durP2;ratioP2;P2;SDS_P1;SDS_P2;PMS_P1;PMS_P2;Temp;Humidity;BMP_temperature;BMP_pressure;BME280_temperature;BME280_humidity;BME280_pressure;Samples;Min_cycle;Max_cycle;Signal;HPM_P1;HPM_P2
2022/10/02 00:00:07;;;;;;;19.52;4.38;;;;;;;13.91;100.00;101341.88;5236693;28;20033;-73
2022/10/02 00:02:42;;;;;;;21.98;4.60;;;;;;;13.83;100.00;101343.41;5236563;28;20050;-73
2022/10/02 00:05:22;;;;;;;17.77;4.38;;;;;;;13.84;100.00;101341.59;5234310;28;20033;-73
2022/10/02 00:08:12;;;;;;;18.50;4.57;;;;;;;13.97;100.00;101344.75;5235989;28;20063;-73
2022/10/02 00:10:50;;;;;;;19.83;5.10;;;;;;;13.85;100.00;101348.50;5235609;28;20471;-72
2022/10/02 00:13:27;;;;;;;24.77;5.38;;;;;;;13.81;100.00;101342.69;5235785;28;20030;-73
2022/10/02 00:16:02;;;;;;;21.33;4.35;;;;;;;13.81;100.00;101345.31;5236521;28;20033;-73
2022/10/02 00:18:36;;;;;;;15.88;4.30;;;;;;;13.82;100.00;101349.59;5236243;28;20494;-73
2022/10/02 00:21:32;;;;;;;23.23;4.63;;;;;;;13.88;100.00;101351.69;5236415;28;20057;-73
2022/10/02 00:24:13;;;;;;;18.20;4.75;;;;;;;13.96;100.00;101360.72;5236704;28;20067;-73
2022/10/02 00:27:14;;;;;;;23.13;4.63;;;;;;;14.07;100.00;101355.31;5235197;28;20491;-73
2022/10/02 00:29:51;;;;;;;26.15;5.47;;;;;;;13.92;100.00;101357.53;5235742;28;20033;-73
2022/10/02 00:32:41;;;;;;;21.83;5.43;;;;;;;14.08;100.00;101367.50;5236274;28;20021;-73
2022/10/02 00:35:16;;;;;;;18.70;5.75;;;;;;;13.92;100.00;101364.59;5236487;28;20029;-73
2022/10/02 00:38:13;;;;;;;24.55;5.38;;;;;;;14.04;100.00;101366.13;5236752;28;20056;-73
2022/10/02 00:41:09;;;;;;;26.52;4.90;;;;;;;13.98;100.00;101369.28;5236052;28;20073;-72
2022/10/02 00:43:56;;;;;;;18.45;4.57;;;;;;;14.07;100.00;101373.75;5235458;28;20029;-73
2022/10/02 00:46:46;;;;;;;29.60;5.07;;;;;;;14.00;100.00;101362.91;5234676;28;20040;-72
2022/10/02 00:49:34;;;;;;;24.35;4.70;;;;;;;13.87;100.00;101371.13;5236313;28;20113;-73
2022/10/02 00:52:30;;;;;;;26.25;6.03;;;;;;;14.05;100.00;101373.03;5234581;28;20584;-73
2022/10/02 00:55:20;;;;;;;19.52;4.57;;;;;;;14.10;100.00;101373.47;5236396;28;20052;-72
2022/10/02 00:58:21;;;;;;;18.02;5.38;;;;;;;14.12;100.00;101371.50;5235414;28;20045;-73
2022/10/02 01:01:12;;;;;;;27.70;6.10;;;;;;;14.04;100.00;101371.38;5235781;28;20029;-73
2022/10/02 01:03:53;;;;;;;24.88;5.32;;;;;;;13.99;100.00;101370.97;5234839;28;20068;-72
2022/10/02 01:06:27;;;;;;;24.50;4.97;;;;;;;13.91;100.00;101363.78;5233955;28;20028;-73
2022/10/02 01:09:00;;;;;;;28.60;5.28;;;;;;;13.93;100.00;101379.44;5235913;28;20375;-73
2022/10/02 01:11:32;;;;;;;23.73;5.35;;;;;;;13.95;100.00;101370.41;5236320;28;20462;-73
2022/10/02 01:14:03;;;;;;;22.67;5.20;;;;;;;13.93;100.00;101374.16;5234332;28;20063;-73
2022/10/02 01:16:34;;;;;;;20.60;4.60;;;;;;;13.98;100.00;101375.41;5233284;28;20053;-72
2022/10/02 01:19:24;;;;;;;22.55;5.63;;;;;;;14.08;100.00;101373.59;5235648;28;20032;-73
2022/10/02 01:22:09;;;;;;;26.38;5.68;;;;;;;14.11;100.00;101369.84;5234738;28;20056;-73
2022/10/02 01:24:47;;;;;;;20.52;4.80;;;;;;;14.08;100.00;101370.13;5235580;28;20048;-73
2022/10/02 01:27:18;;;;;;;17.08;4.72;;;;;;;14.01;100.00;101371.66;5234196;28;20030;-73
2022/10/02 01:29:54;;;;;;;26.95;5.70;;;;;;;14.07;100.00;101355.31;5236165;28;20022;-73
2022/10/02 01:32:28;;;;;;;27.55;4.95;;;;;;;14.02;100.00;101363.63;5234512;28;20029;-72
2022/10/02 01:34:59;;;;;;;;;;;;;;;14.54;100.00;101356.19;5235341;28;20494;-72
2022/10/02 01:37:35;;;;;;;21.23;4.75;;;;;;;14.07;100.00;101357.94;5235416;28;19921;-73
2022/10/02 01:40:09;;;;;;;22.70;5.43;;;;;;;14.06;100.00;101374.72;5235318;28;20029;-72
2022/10/02 01:42:40;;;;;;;26.45;5.53;;;;;;;14.05;100.00;101367.75;5235024;28;20053;-73
2022/10/02 01:45:12;;;;;;;28.52;6.25;;;;;;;14.09;100.00;101361.25;5234229;28;20120;-72
2022/10/02 01:47:55;;;;;;;26.70;5.78;;;;;;;14.17;100.00;101371.94;5235290;28;20059;-73
2022/10/02 01:50:46;;;;;;;25.90;5.75;;;;;;;14.28;100.00;101381.47;5235151;28;20056;-72
2022/10/02 01:53:29;;;;;;;28.60;5.53;;;;;;;14.20;100.00;101378.72;5235066;28;20037;-73
2022/10/02 01:56:11;;;;;;;33.42;5.63;;;;;;;14.22;100.00;101377.59;5234909;28;20562;-72
2022/10/02 01:58:42;;;;;;;22.73;5.63;;;;;;;14.12;100.00;101368.88;5234917;28;20139;-72
2022/10/02 02:01:39;;;;;;;23.90;5.23;;;;;;;14.29;100.00;101368.16;5231193;28;20152;-73
2022/10/02 02:04:25;;;;;;;21.27;4.80;;;;;;;14.28;100.00;101377.06;5234030;28;20033;-73
2022/10/02 02:07:03;;;;;;;26.35;5.68;;;;;;;14.15;100.00;101370.41;5233544;28;20084;-73
2022/10/02 02:09:58;;;;;;;23.05;4.88;;;;;;;14.26;100.00;101370.25;5235357;28;20033;-73
2022/10/02 02:12:32;;;;;;;28.70;5.30;;;;;;;14.25;100.00;101372.06;5234472;28;20017;-72
2022/10/02 02:15:10;;;;;;;25.92;5.78;;;;;;;14.27;100.00;101374.53;5234885;28;20394;-72
2022/10/02 02:18:02;;;;;;;29.90;6.03;;;;;;;14.30;100.00;101369.81;5235063;28;20025;-73
2022/10/02 02:20:43;;;;;;;28.60;5.70;;;;;;;14.35;100.00;101374.66;5233108;28;20035;-73
2022/10/02 02:23:19;;;;;;;21.92;5.40;;;;;;;14.31;100.00;101378.56;5235040;28;20446;-73
2022/10/02 02:25:55;;;;;;;23.13;5.80;;;;;;;14.33;100.00;101381.91;5233904;28;20029;-73
2022/10/02 02:28:30;;;;;;;24.58;4.90;;;;;;;14.40;100.00;101376.91;5233814;28;20033;-73
2022/10/02 02:31:04;;;;;;;23.42;5.70;;;;;;;14.36;100.00;101376.34;5234858;28;20029;-73
2022/10/02 02:33:41;;;;;;;19.60;4.68;;;;;;;14.43;100.00;101379.22;5234771;28;20034;-73
2022/10/02 02:36:18;;;;;;;26.17;5.30;;;;;;;14.44;100.00;101384.38;5234289;28;20037;-72
2022/10/02 02:38:55;;;;;;;28.10;6.35;;;;;;;14.45;100.00;101383.41;5234245;28;20103;-73
2022/10/02 02:41:31;;;;;;;19.08;4.72;;;;;;;14.44;100.00;101381.75;5234212;28;20374;-73
2022/10/02 02:44:15;;;;;;;21.27;5.00;;;;;;;14.51;100.00;101374.13;5235024;28;20057;-73
2022/10/02 02:47:03;;;;;;;15.88;3.80;;;;;;;14.49;100.00;101374.25;5237383;28;20026;-73
2022/10/02 02:50:09;;;;;;;15.63;3.55;;;;;;;14.44;100.00;101375.63;5239171;28;20037;-73
2022/10/02 02:52:42;;;;;;;9.25;3.03;;;;;;;14.34;100.00;101379.09;5228683;28;20045;-73
2022/10/02 02:55:21;;;;;;;10.27;3.03;;;;;;;14.31;100.00;101384.66;5238114;28;20025;-74
2022/10/02 02:58:04;;;;;;;8.90;2.45;;;;;;;14.36;100.00;101385.09;5238282;28;20033;-73
2022/10/02 03:00:36;;;;;;;9.95;2.30;;;;;;;14.19;100.00;101395.50;5238182;28;20504;-73
2022/10/02 03:03:07;;;;;;;9.13;2.72;;;;;;;14.12;100.00;101382.88;5238328;28;20022;-73
2022/10/02 03:05:45;;;;;;;11.57;2.65;;;;;;;14.12;100.00;101382.88;5238640;28;20244;-73
2022/10/02 03:08:28;;;;;;;7.10;2.00;;;;;;;14.17;100.00;101387.75;5238073;28;20474;-73
2022/10/02 03:11:09;;;;;;;;;;;;;;;14.57;100.00;101384.91;5236791;28;20029;-73
2022/10/02 03:13:52;;;;;;;8.55;2.33;;;;;;;14.16;100.00;101391.34;5236190;28;19917;-73
2022/10/02 03:16:26;;;;;;;8.55;2.15;;;;;;;14.00;100.00;101386.63;5237987;28;20033;-73
2022/10/02 03:19:20;;;;;;;7.60;1.90;;;;;;;14.11;100.00;101385.66;5237845;28;20021;-73
2022/10/02 03:22:03;;;;;;;5.65;1.48;;;;;;;13.94;100.00;101387.22;5237720;28;20087;-73
2022/10/02 03:24:44;;;;;;;8.02;2.33;;;;;;;14.00;100.00;101383.16;5238569;28;20033;-73
2022/10/02 03:27:30;;;;;;;7.40;2.15;;;;;;;14.02;100.00;101382.06;5237633;28;20602;-73
2022/10/02 03:30:10;;;;;;;6.60;1.90;;;;;;;14.01;100.00;101390.09;5236234;28;20037;-73
2022/10/02 03:32:45;;;;;;;8.82;2.72;;;;;;;13.94;100.00;101387.22;5238073;28;20036;-73
2022/10/02 03:35:17;;;;;;;9.55;2.78;;;;;;;13.87;100.00;101386.09;5236569;28;20459;-73
2022/10/02 03:37:52;;;;;;;7.47;2.58;;;;;;;13.88;100.00;101379.84;5236664;28;20513;-73
2022/10/02 03:40:25;;;;;;;6.72;2.10;;;;;;;13.89;100.00;101386.78;5235818;28;20121;-73
2022/10/02 03:42:57;;;;;;;7.40;2.15;;;;;;;13.92;100.00;101393.56;5237549;28;20025;-72
2022/10/02 03:45:28;;;;;;;10.93;2.60;;;;;;;13.92;100.00;101393.56;5237617;28;20029;-73
2022/10/02 03:48:00;;;;;;;9.30;3.05;;;;;;;13.92;100.00;101409.38;5236962;28;20021;-73
2022/10/02 03:50:31;;;;;;;7.35;2.85;;;;;;;13.96;100.00;101416.84;5236169;28;20037;-73
2022/10/02 03:53:10;;;;;;;10.13;2.78;;;;;;;13.99;100.00;101418.41;5237812;28;20546;-73
2022/10/02 03:55:46;;;;;;;9.55;3.75;;;;;;;13.99;100.00;101413.13;5236944;28;20040;-73
2022/10/02 03:58:18;;;;;;;10.88;5.28;;;;;;;13.93;100.00;101403.13;5235268;28;20028;-73
2022/10/02 04:01:06;;;;;;;13.07;5.40;;;;;;;14.14;100.00;101400.38;5233008;28;20490;-73
2022/10/02 04:03:46;;;;;;;13.10;7.07;;;;;;;14.06;100.00;101404.53;5231921;28;20037;-73
2022/10/02 04:06:24;;;;;;;15.52;7.75;;;;;;;14.10;100.00;101405.09;5234182;28;20032;-73
2022/10/02 04:09:03;;;;;;;12.95;7.38;;;;;;;14.16;100.00;101403.69;5237288;28;20029;-73
2022/10/02 04:11:58;;;;;;;16.73;8.13;;;;;;;14.27;100.00;101411.44;5236538;28;20033;-73
2022/10/02 04:14:40;;;;;;;16.25;6.45;;;;;;;14.18;100.00;101404.38;5236532;28;20479;-73
2022/10/02 04:17:19;;;;;;;14.60;6.80;;;;;;;14.05;100.00;101391.47;5237576;28;20493;-73
2022/10/02 04:19:56;;;;;;;16.50;7.22;;;;;;;14.12;100.00;101408.41;5236488;28;20057;-73
2022/10/02 04:22:35;;;;;;;14.25;6.43;;;;;;;14.15;100.00;101408.13;5236230;28;20104;-73
2022/10/02 04:25:17;;;;;;;13.48;6.20;;;;;;;14.18;100.00;101413.13;5235508;28;20053;-73
2022/10/02 04:28:03;;;;;;;13.98;5.95;;;;;;;14.15;100.00;101402.03;5235971;28;20060;-73
2022/10/02 04:30:34;;;;;;;17.30;6.30;;;;;;;14.07;100.00;101411.47;5234821;28;20523;-73
2022/10/02 04:33:11;;;;;;;14.40;6.57;;;;;;;14.17;100.00;101407.97;5231762;28;20120;-73
2022/10/02 04:36:17;;;;;;;16.75;6.68;;;;;;;14.26;100.00;101405.34;5234322;28;20037;-73
2022/10/02 04:39:05;;;;;;;19.83;6.72;;;;;;;14.15;100.00;101402.84;5234907;28;20040;-73
2022/10/02 04:42:05;;;;;;;16.63;7.22;;;;;;;14.32;100.00;101409.25;5232927;28;20021;-73
2022/10/02 04:44:37;;;;;;;18.83;9.20;;;;;;;14.24;100.00;101416.97;5236178;28;20120;-73
2022/10/02 04:47:31;;;;;;;19.23;8.82;;;;;;;14.38;100.00;101429.75;5235261;28;20550;-73
2022/10/02 04:50:11;;;;;;;21.95;11.68;;;;;;;14.40;100.00;101429.63;5234724;28;20072;-73
2022/10/02 04:52:51;;;;;;;20.13;11.40;;;;;;;14.40;100.00;101437.53;5234153;28;20112;-73
2022/10/02 04:55:36;;;;;;;24.23;14.00;;;;;;;14.40;100.00;101429.63;5234311;28;20044;-73
2022/10/02 04:58:45;;;;;;;24.30;14.05;;;;;;;14.54;100.00;101429.19;5234201;28;20044;-73
2022/10/02 05:01:39;;;;;;;22.77;11.70;;;;;;;14.60;100.00;101441.81;5234205;28;20029;-72
2022/10/02 05:04:29;;;;;;;28.92;12.13;;;;;;;14.53;100.00;101432.81;5230575;28;20127;-72
2022/10/02 05:07:22;;;;;;;26.83;12.90;;;;;;;14.54;100.00;101445.00;5233640;28;20087;-72
2022/10/02 05:10:21;;;;;;;31.67;13.57;;;;;;;14.74;100.00;101441.38;5233271;28;20095;-73
2022/10/02 05:13:03;;;;;;;38.78;14.15;;;;;;;14.60;100.00;101445.28;5234651;28;20113;-72
2022/10/02 05:15:41;;;;;;;28.53;14.63;;;;;;;14.66;100.00;101443.91;5234897;28;20045;-73
2022/10/02 05:18:33;;;;;;;29.27;13.73;;;;;;;14.64;100.00;101439.72;5233528;28;20052;-73
2022/10/02 05:21:16;;;;;;;22.88;13.55;;;;;;;14.62;100.00;101429.31;5234560;28;20029;-72
2022/10/02 05:23:50;;;;;;;29.98;15.48;;;;;;;14.60;100.00;101439.19;5235351;28;20029;-72
2022/10/02 05:26:28;;;;;;;28.25;15.82;;;;;;;14.60;100.00;101445.28;5232568;28;20025;-73
2022/10/02 05:29:27;;;;;;;29.60;14.98;;;;;;;14.70;100.00;101458.47;5233482;28;20443;-73
2022/10/02 05:32:19;;;;;;;29.45;15.18;;;;;;;14.53;100.00;101461.81;5234074;28;20390;-73
2022/10/02 05:35:06;;;;;;;34.55;14.43;;;;;;;14.64;100.00;101461.66;5235667;28;20060;-73
2022/10/02 05:38:21;;;;;;;30.75;13.85;;;;;;;14.77;100.00;101454.28;5233578;28;20046;-73
2022/10/02 05:41:04;;;;;;;24.42;13.57;;;;;;;14.63;100.00;101467.09;5224834;28;20076;-73
2022/10/02 05:43:47;;;;;;;32.70;12.30;;;;;;;14.64;100.00;101469.56;5231743;28;20513;-73
2022/10/02 05:46:24;;;;;;;30.67;12.00;;;;;;;14.56;100.00;101464.19;5232107;28;20029;-73
2022/10/02 05:49:15;;;;;;;28.90;11.50;;;;;;;14.71;100.00;101467.22;5234854;28;20032;-73
2022/10/02 05:51:52;;;;;;;30.95;11.25;;;;;;;14.57;100.00;101463.19;5234342;28;20432;-73
2022/10/02 05:54:51;;;;;;;29.27;9.95;;;;;;;14.65;100.00;101468.59;5234291;28;20044;-73
2022/10/02 05:57:35;;;;;;;24.88;8.88;;;;;;;14.67;100.00;101471.09;5232798;28;20431;-73
2022/10/02 06:00:35;;;;;;;23.90;8.23;;;;;;;14.70;100.00;101470.78;5232508;28;20029;-73
2022/10/02 06:03:25;;;;;;;23.08;6.47;;;;;;;14.68;100.00;101464.84;5232937;28;20032;-73
2022/10/02 06:05:59;;;;;;;27.52;7.03;;;;;;;14.64;100.00;101463.47;5232422;28;20037;-74
2022/10/02 06:08:40;;;;;;;22.35;6.68;;;;;;;14.65;100.00;101476.50;5234561;28;20069;-73
2022/10/02 06:11:28;;;;;;;22.63;6.57;;;;;;;14.74;100.00;101472.22;5234761;28;20029;-73
2022/10/02 06:14:09;;;;;;;24.27;7.07;;;;;;;14.65;100.00;101470.41;5234612;28;20021;-73
2022/10/02 06:16:48;;;;;;;24.50;6.32;;;;;;;14.69;100.00;101485.78;5233264;28;20176;-73
2022/10/02 06:19:28;;;;;;;22.83;6.22;;;;;;;14.66;100.00;101482.59;5233342;28;20033;-73
2022/10/02 06:22:11;;;;;;;28.67;6.78;;;;;;;14.73;100.00;101492.44;5235994;28;20118;-73
2022/10/02 06:24:59;;;;;;;21.15;6.35;;;;;;;14.80;100.00;101501.47;5237778;28;20026;-73
2022/10/02 06:27:45;;;;;;;26.42;6.40;;;;;;;14.74;100.00;101504.69;5237171;28;20502;-73
2022/10/02 06:30:18;;;;;;;25.05;6.75;;;;;;;14.67;100.00;101506.22;5235674;28;20075;-73
2022/10/02 06:33:20;;;;;;;28.20;6.40;;;;;;;14.90;100.00;101503.28;5236955;28;20025;-72
2022/10/02 06:36:10;;;;;;;22.58;5.85;;;;;;;14.91;100.00;101499.66;5237670;28;20504;-72
2022/10/02 06:38:47;;;;;;;18.30;6.03;;;;;;;14.76;100.00;101500.09;5237440;28;20060;-73
2022/10/02 06:41:42;;;;;;;22.00;5.97;;;;;;;14.81;100.00;101508.44;5236382;28;20044;-73
2022/10/02 06:44:22;;;;;;;23.67;6.22;;;;;;;14.81;100.00;101510.22;5238083;28;20406;-73
2022/10/02 06:47:15;;;;;;;23.88;6.78;;;;;;;14.96;100.00;101511.41;5238652;28;20033;-73
2022/10/02 06:50:14;;;;;;;23.65;6.60;;;;;;;14.92;100.00;101523.25;5238016;28;20029;-73
2022/10/02 06:53:04;;;;;;;19.42;6.00;;;;;;;14.96;100.00;101521.97;5237670;28;20040;-73
2022/10/02 06:56:05;;;;;;;16.67;6.80;;;;;;;14.94;100.00;101531.84;5236672;28;20033;-75
2022/10/02 06:59:03;;;;;;;21.27;6.88;;;;;;;15.06;100.00;101535.16;5231065;28;20041;-73
2022/10/02 07:02:01;;;;;;;18.13;6.40;;;;;;;15.01;100.00;101537.41;5232014;28;20480;-73
2022/10/02 07:04:51;;;;;;;15.77;6.38;;;;;;;15.06;100.00;101551.00;5236553;28;20109;-73
2022/10/02 07:07:48;;;;;;;16.17;6.80;;;;;;;15.07;100.00;101550.84;5234955;28;20017;-73
2022/10/02 07:10:34;;;;;;;20.90;7.45;;;;;;;15.01;100.00;101554.06;5232924;28;20040;-73
2022/10/02 07:13:18;;;;;;;18.88;7.63;;;;;;;14.98;100.00;101554.34;5235061;28;20025;-73
2022/10/02 07:16:27;;;;;;;19.23;7.88;;;;;;;15.18;100.00;101555.13;5237347;28;20053;-73
2022/10/02 07:19:13;;;;;;;20.20;7.88;;;;;;;15.14;100.00;101545.84;5234328;28;20033;-73
2022/10/02 07:22:02;;;;;;;18.27;9.40;;;;;;;15.13;100.00;101551.28;5235346;28;20037;-73
2022/10/02 07:24:48;;;;;;;22.23;10.77;;;;;;;15.07;100.00;101550.84;5235764;28;20108;-73
2022/10/02 07:27:30;;;;;;;19.70;11.07;;;;;;;15.09;100.00;101556.81;5235608;28;20565;-73
2022/10/02 07:30:07;;;;;;;19.05;10.48;;;;;;;15.09;100.00;101554.19;5236943;28;20036;-73
2022/10/02 07:32:47;;;;;;;16.80;10.70;;;;;;;15.12;100.00;101555.72;5232150;28;20037;-73
2022/10/02 07:35:21;;;;;;;20.10;11.18;;;;;;;15.08;100.00;101555.16;5235163;28;20501;-73
2022/10/02 07:38:11;;;;;;;17.23;10.48;;;;;;;15.31;100.00;101560.94;5236053;28;20348;-73
2022/10/02 07:41:17;;;;;;;20.00;11.43;;;;;;;15.38;100.00;101555.06;5233011;28;20037;-73
2022/10/02 07:43:57;;;;;;;17.52;9.52;;;;;;;15.28;100.00;101563.88;5234788;28;20029;-73
2022/10/02 07:46:48;;;;;;;14.45;9.13;;;;;;;15.31;100.00;101570.69;5235019;28;20441;-73
2022/10/02 07:49:38;;;;;;;16.30;9.32;;;;;;;15.35;100.00;101564.13;5236266;28;20033;-73
2022/10/02 07:52:24;;;;;;;18.75;9.70;;;;;;;15.36;100.00;101565.78;5234908;28;20465;-73
2022/10/02 07:55:21;;;;;;;16.95;8.45;;;;;;;15.48;100.00;101564.63;5232286;28;20037;-73
2022/10/02 07:58:04;;;;;;;17.50;8.60;;;;;;;15.46;100.00;101568.41;5236240;28;20566;-73
2022/10/02 08:01:00;;;;;;;16.52;8.27;;;;;;;15.62;100.00;101573.91;5234372;28;20036;-73
2022/10/02 08:03:38;;;;;;;16.08;7.90;;;;;;;15.46;100.00;101590.38;5234283;28;20026;-74
2022/10/02 08:06:10;;;;;;;16.80;8.15;;;;;;;15.44;100.00;101587.03;5234832;28;20025;-74
2022/10/02 08:09:00;;;;;;;15.43;8.43;;;;;;;15.49;100.00;101594.50;5230119;28;20041;-74
2022/10/02 08:11:37;;;;;;;19.90;8.23;;;;;;;15.60;100.00;101591.69;5233872;28;20426;-74
2022/10/02 08:14:17;;;;;;;16.00;8.93;;;;;;;15.58;100.00;101598.94;5231050;28;20497;-74
2022/10/02 08:16:51;;;;;;;15.13;7.55;;;;;;;15.64;100.00;101601.00;5232359;28;20070;-74
2022/10/02 08:19:39;;;;;;;14.32;8.23;;;;;;;15.79;100.00;101602.22;5231999;28;20057;-74
2022/10/02 08:22:35;;;;;;;16.10;8.90;;;;;;;15.94;100.00;101607.03;5231603;28;20029;-74
2022/10/02 08:25:24;;;;;;;13.48;8.98;;;;;;;15.89;100.00;101614.56;5230943;28;20475;-74
2022/10/02 08:28:02;;;;;;;15.15;9.30;;;;;;;15.87;100.00;101608.59;5233041;28;20033;-74
2022/10/02 08:30:33;;;;;;;14.40;8.98;;;;;;;15.81;100.00;101617.94;5234656;28;20033;-74
2022/10/02 08:33:31;;;;;;;14.07;9.32;;;;;;;16.12;100.00;101618.47;5234522;28;20253;-73
2022/10/02 08:36:19;;;;;;;15.82;9.75;;;;;;;15.96;100.00;101613.84;5232146;28;20039;-74
2022/10/02 08:39:13;;;;;;;14.88;8.90;;;;;;;16.04;100.00;101615.75;5233920;28;20125;-74
2022/10/02 08:42:12;;;;;;;14.23;8.07;;;;;;;16.05;100.00;101627.97;5233751;28;20037;-74
2022/10/02 08:45:10;;;;;;;13.15;7.68;;;;;;;16.11;100.00;101632.69;5233669;28;20029;-74
2022/10/02 08:48:14;;;;;;;18.33;8.23;;;;;;;16.26;100.00;101641.78;5230634;28;20116;-74
2022/10/02 08:51:24;;;;;;;15.05;8.88;;;;;;;16.30;100.00;101635.22;5232612;28;20026;-74
2022/10/02 08:54:18;;;;;;;14.95;7.57;;;;;;;16.33;100.00;101643.81;5234522;28;20045;-74
2022/10/02 08:57:06;;;;;;;12.90;7.13;;;;;;;16.45;100.00;101637.38;5232094;28;20118;-74
2022/10/02 09:00:01;;;;;;;12.88;6.53;;;;;;;16.35;100.00;101641.88;5234132;28;20033;-73
2022/10/02 09:02:59;;;;;;;15.10;5.90;;;;;;;16.55;100.00;101653.97;5232744;28;20021;-74
2022/10/02 09:06:01;;;;;;;14.32;6.07;;;;;;;16.59;100.00;101655.34;5230802;28;20378;-74
2022/10/02 09:08:41;;;;;;;13.05;5.38;;;;;;;16.35;100.00;101650.63;5233469;28;20033;-74
2022/10/02 09:11:27;;;;;;;9.88;5.40;;;;;;;16.36;100.00;101659.41;5231445;28;20041;-74
2022/10/02 09:14:13;;;;;;;12.23;5.45;;;;;;;16.43;100.00;101660.47;5232236;28;20025;-74
2022/10/02 09:17:15;;;;;;;13.50;5.15;;;;;;;16.57;100.00;101665.25;5232344;28;20033;-74
2022/10/02 09:20:29;;;;;;;13.57;5.60;;;;;;;16.72;100.00;101657.66;5232920;28;20040;-74
2022/10/02 09:23:26;;;;;;;14.85;5.65;;;;;;;16.80;100.00;101667.50;5234556;28;20151;-74
2022/10/02 09:26:25;;;;;;;15.13;4.80;;;;;;;16.91;100.00;101656.69;5233661;28;20488;-74
2022/10/02 09:29:02;;;;;;;16.30;4.82;;;;;;;16.85;100.00;101652.00;5234988;28;20428;-74
2022/10/02 09:32:11;;;;;;;11.32;4.72;;;;;;;17.02;100.00;101656.47;5233453;28;20041;-74
2022/10/02 09:35:17;;;;;;;16.40;5.25;;;;;;;17.21;100.00;101663.41;5231509;28;20703;-74
2022/10/02 09:38:04;;;;;;;12.30;4.15;;;;;;;17.02;100.00;101656.47;5199822;28;20120;-74
2022/10/02 09:41:08;;;;;;;12.65;4.60;;;;;;;17.20;100.00;101667.06;5232583;28;20120;-74
2022/10/02 09:44:02;;;;;;;;;;;;;;;17.45;100.00;101663.56;5233334;28;20039;-74
2022/10/02 09:47:08;;;;;;;14.40;4.07;;;;;;;17.33;100.00;101674.59;5230717;28;19925;-74
2022/10/02 09:50:03;;;;;;;16.73;4.43;;;;;;;17.16;100.00;101677.13;5233796;28;20087;-74
2022/10/02 09:52:44;;;;;;;14.70;4.93;;;;;;;17.00;100.00;101672.47;5233903;28;20382;-74
2022/10/02 09:55:45;;;;;;;10.95;4.20;;;;;;;17.21;100.00;101679.31;5229843;28;20072;-74
2022/10/02 09:58:55;;;;;;;15.43;4.70;;;;;;;17.29;100.00;101686.47;5230215;28;20014;-74
2022/10/02 10:02:08;;;;;;;14.43;4.55;;;;;;;17.15;100.00;101688.66;5213813;28;20056;-74
2022/10/02 10:05:11;;;;;;;14.10;4.25;;;;;;;17.35;100.00;101680.53;5221177;28;20045;-74
2022/10/02 10:08:28;;;;;;;13.18;4.40;;;;;;;17.54;100.00;101687.47;5230756;28;20032;-74
2022/10/02 10:11:00;;;;;;;15.85;5.22;;;;;;;17.54;100.00;101684.81;5201363;28;20061;-74
2022/10/02 10:14:06;;;;;;;13.55;4.70;;;;;;;17.83;100.00;101685.38;5231339;28;20155;-74
2022/10/02 10:17:07;;;;;;;14.68;4.55;;;;;;;17.69;100.00;101688.56;5231157;28;20033;-74
2022/10/02 10:19:58;;;;;;;14.07;4.63;;;;;;;17.81;100.00;101694.50;5296397;22;20059;-76
2022/10/02 10:22:59;;;;;;;16.20;4.53;;;;;;;17.86;100.00;101705.44;5291042;28;20377;-78
2022/10/02 10:25:36;;;;;;;17.58;4.40;;;;;;;17.58;100.00;101702.94;5295860;28;20024;-77
2022/10/02 10:28:17;;;;;;;15.05;4.53;;;;;;;17.56;100.00;101709.34;5289902;28;20035;-77
2022/10/02 10:31:04;;;;;;;15.77;3.80;;;;;;;17.62;100.00;101711.41;5283577;28;20043;-77
2022/10/02 10:34:21;;;;;;;13.07;4.25;;;;;;;17.83;100.00;101713.72;5284954;28;20778;-76
2022/10/02 10:40:23;;;;;;;12.70;4.03;;;;;;;17.83;100.00;101737.56;5283227;28;20032;-78
2022/10/02 10:43:35;;;;;;;13.45;4.00;;;;;;;17.79;100.00;101741.53;5285777;28;20039;-78
2022/10/02 10:46:14;;;;;;;13.20;3.95;;;;;;;17.74;100.00;101744.59;5253246;28;20093;-78
2022/10/02 10:49:08;;;;;;;11.07;3.90;;;;;;;17.88;100.00;101735.28;5284796;28;20028;-78
2022/10/02 10:51:52;;;;;;;14.18;3.45;;;;;;;17.70;100.00;101738.78;5282082;28;20074;-79
2022/10/02 10:54:53;;;;;;;15.20;3.90;;;;;;;17.87;100.00;101745.03;5282463;28;20036;-78
2022/10/02 10:57:37;;;;;;;12.80;3.55;;;;;;;17.78;100.00;101739.88;5281789;28;20107;-79
2022/10/02 11:00:08;;;;;;;;;;;;;;;18.37;100.00;101733.72;5266227;28;20111;-78
2022/10/02 11:03:02;;;;;;;12.18;3.20;;;;;;;18.12;100.00;101740.72;5280667;28;19913;-78
2022/10/02 11:06:07;;;;;;;12.25;3.42;;;;;;;18.10;100.00;101732.09;5281207;28;20103;-78
2022/10/02 11:09:19;;;;;;;16.10;4.13;;;;;;;18.21;100.00;101726.50;5283295;28;20053;-77
2022/10/02 11:11:56;;;;;;;13.43;4.05;;;;;;;18.03;100.00;101731.03;5287109;28;20041;-77
2022/10/02 11:14:46;;;;;;;12.27;3.75;;;;;;;18.17;100.00;101735.78;5288378;28;20028;-77
2022/10/02 11:17:33;;;;;;;12.25;3.40;;;;;;;18.19;100.00;101741.75;5289464;28;20082;-79
2022/10/02 11:20:34;;;;;;;15.43;3.92;;;;;;;18.27;100.00;101734.84;5291680;28;20460;-77
2022/10/02 11:23:30;;;;;;;14.73;3.97;;;;;;;18.36;100.00;101731.22;5286799;28;20026;-78
2022/10/02 11:26:13;;;;;;;14.25;4.60;;;;;;;18.36;100.00;101739.19;5272933;28;20107;-77
2022/10/02 11:29:13;;;;;;;15.82;4.57;;;;;;;18.45;100.00;101747.03;5266589;28;20126;-76
2022/10/02 11:31:48;;;;;;;10.95;3.60;;;;;;;18.22;100.00;101753.84;5285516;28;20040;-78
2022/10/02 11:34:42;;;;;;;19.50;4.80;;;;;;;18.27;100.00;101756.06;5287663;28;20029;-75
2022/10/02 11:37:44;;;;;;;10.90;3.25;;;;;;;18.38;100.00;101750.47;5260671;28;20028;-75
2022/10/02 11:40:21;;;;;;;11.85;3.58;;;;;;;18.16;100.00;101763.28;5288306;28;20016;-77
2022/10/02 11:43:16;;;;;;;10.05;3.92;;;;;;;18.23;100.00;101760.84;5284745;28;20032;-77
2022/10/02 11:46:02;;;;;;;10.23;3.80;;;;;;;18.33;100.00;101764.19;5282158;28;20181;-77
2022/10/02 11:48:48;;;;;;;15.00;3.92;;;;;;;18.26;100.00;101759.69;5286403;28;20465;-77
2022/10/02 11:51:45;;;;;;;14.50;4.43;;;;;;;18.60;100.00;101757.00;5265696;28;20029;-77
2022/10/02 11:54:45;;;;;;;13.18;3.80;;;;;;;18.73;100.00;101752.13;5284995;28;20109;-76
2022/10/02 11:57:44;;;;;;;11.82;4.00;;;;;;;18.89;100.00;101754.81;5287042;28;20027;-76
2022/10/02 12:00:28;;;;;;;17.13;4.10;;;;;;;18.79;100.00;101754.16;5285394;28;20481;-76
2022/10/02 12:03:29;;;;;;;13.90;3.88;;;;;;;18.90;100.00;101760.94;5271695;28;20016;-76
2022/10/02 12:06:18;;;;;;;13.52;4.15;;;;;;;18.43;100.00;101764.91;5287040;28;20086;-76
2022/10/02 12:09:08;;;;;;;14.65;5.07;;;;;;;18.50;100.00;101767.78;5265469;28;20032;-76
2022/10/02 12:12:12;;;;;;;14.73;4.95;;;;;;;18.49;100.00;101766.13;5282847;28;20122;-76
2022/10/02 12:14:54;;;;;;;12.40;4.38;;;;;;;18.15;100.00;101776.72;5287959;28;20495;-76
2022/10/02 12:17:31;;;;;;;12.50;5.50;;;;;;;17.85;100.00;101789.44;5285942;28;20078;-77
2022/10/02 12:29:42;;;;;;;14.60;6.40;;;;;;;17.60;100.00;101787.56;5285674;28;20024;-78
2022/10/02 12:32:16;;;;;;;12.70;5.35;;;;;;;17.41;100.00;101794.69;5280448;28;20426;-78
2022/10/02 12:35:09;;;;;;;15.98;5.30;;;;;;;17.68;100.00;101795.56;5267527;28;20030;-77
2022/10/02 12:38:08;;;;;;;10.77;5.03;;;;;;;17.63;100.00;101792.56;5286569;28;20036;-77
2022/10/02 12:41:21;;;;;;;12.00;4.50;;;;;;;17.74;100.00;101795.78;5275083;28;20039;-78
2022/10/02 12:44:15;;;;;;;14.00;5.05;;;;;;;17.85;100.00;101784.16;5267922;28;20074;-79
2022/10/02 12:47:14;;;;;;;12.70;4.28;;;;;;;17.82;100.00;101792.41;5276055;28;20036;-78
2022/10/02 12:50:26;;;;;;;11.50;4.70;;;;;;;18.15;100.00;101784.69;5257677;28;20432;-78